createdAt,value
2018-09-01T00:01:39.003Z,7.72
2018-09-01T00:04:06.393Z,8.00
2018-09-01T00:06:33.640Z,8.45
2018-09-01T00:09:00.988Z,8.05
2018-09-01T00:11:28.243Z,8.70
2018-09-01T00:13:55.472Z,8.90
2018-09-01T00:16:22.752Z,8.35
2018-09-01T00:18:50.001Z,8.78
2018-09-01T00:21:17.236Z,8.23
2018-09-01T00:23:45.003Z,8.13
2018-09-01T00:26:12.231Z,8.70
2018-09-01T00:28:39.511Z,8.68
2018-09-01T00:31:06.768Z,8.63
2018-09-01T00:33:34.011Z,8.65
2018-09-01T00:36:01.235Z,8.50
2018-09-01T00:38:34.184Z,8.28
2018-09-01T00:41:01.403Z,8.43
2018-09-01T00:43:28.630Z,8.75
2018-09-01T00:45:55.915Z,8.58
2018-09-01T00:48:23.177Z,8.35
2018-09-01T00:50:50.365Z,9.00
2018-09-01T00:53:17.627Z,9.00
2018-09-01T00:55:44.845Z,9.05
2018-09-01T00:58:12.054Z,8.98
2018-09-01T01:00:39.262Z,8.13
2018-09-01T01:03:06.603Z,9.15
2018-09-01T01:05:33.879Z,8.55
2018-09-01T01:08:01.120Z,9.08
2018-09-01T01:10:28.335Z,9.05
2018-09-01T01:12:55.568Z,9.03
2018-09-01T01:15:22.847Z,8.85
2018-09-01T01:17:50.071Z,8.35
2018-09-01T01:20:17.335Z,8.43
2018-09-01T01:22:44.566Z,8.70
2018-09-01T01:25:11.916Z,9.15
2018-09-01T01:27:39.246Z,9.48
2018-09-01T01:30:06.521Z,9.93
2018-09-01T01:32:34.495Z,9.10
2018-09-01T01:35:03.011Z,9.53
2018-09-01T01:37:31.067Z,9.50
2018-09-01T01:39:58.367Z,9.00
2018-09-01T01:42:25.703Z,9.30
2018-09-01T01:44:53.523Z,9.13
2018-09-01T01:47:20.851Z,8.70
2018-09-01T01:49:48.133Z,7.83
2018-09-01T01:52:15.406Z,8.73
2018-09-01T01:54:42.662Z,8.98
2018-09-01T01:57:09.917Z,8.45
2018-09-01T01:59:37.275Z,8.18
2018-09-01T02:02:04.583Z,8.05
2018-09-01T02:04:31.791Z,8.73
2018-09-01T02:06:59.088Z,9.05
2018-09-01T02:09:26.387Z,9.23
2018-09-01T02:11:53.627Z,8.90
2018-09-01T02:14:20.846Z,8.73
2018-09-01T02:16:48.161Z,9.15
2018-09-01T02:19:15.412Z,8.73
2018-09-01T02:21:42.736Z,9.38
2018-09-01T02:24:10.014Z,8.65
2018-09-01T02:26:37.308Z,8.15
2018-09-01T02:29:04.591Z,8.08
2018-09-01T02:31:31.853Z,7.97
2018-09-01T02:33:59.089Z,8.73
2018-09-01T02:36:26.330Z,8.95
2018-09-01T02:38:53.666Z,7.90
2018-09-01T02:41:20.977Z,8.58
2018-09-01T02:43:48.281Z,8.15
2018-09-01T02:46:15.503Z,8.08
2018-09-01T02:48:42.763Z,8.68
2018-09-01T02:51:10.043Z,9.28
2018-09-01T02:53:37.412Z,9.43
2018-09-01T02:56:04.851Z,9.73
2018-09-01T02:58:32.115Z,9.63
2018-09-01T03:02:05.079Z,10.30
2018-09-01T03:04:32.370Z,9.40
2018-09-01T03:07:00.555Z,9.53
2018-09-01T03:09:27.812Z,9.63
2018-09-01T03:11:56.243Z,9.30
2018-09-01T03:14:24.595Z,9.58
2018-09-01T03:16:52.750Z,8.43
2018-09-01T03:19:20.143Z,8.48
2018-09-01T03:21:47.421Z,9.10
2018-09-01T03:24:14.682Z,8.38
2018-09-01T03:26:41.910Z,8.68
2018-09-01T03:29:09.129Z,8.95
2018-09-01T03:31:36.351Z,8.55
2018-09-01T03:34:04.011Z,8.28
2018-09-01T03:36:31.267Z,8.45
2018-09-01T03:38:58.747Z,8.20
2018-09-01T03:41:25.953Z,8.78
2018-09-01T03:43:53.227Z,8.28
2018-09-01T03:46:20.484Z,8.23
2018-09-01T03:48:47.817Z,8.23
2018-09-01T03:51:15.089Z,7.80
2018-09-01T03:53:42.315Z,7.70
2018-09-01T03:56:09.594Z,7.50
2018-09-01T03:58:36.900Z,7.62
2018-09-01T04:01:04.138Z,7.37
2018-09-01T04:03:31.379Z,7.90
2018-09-01T04:05:58.883Z,7.28
2018-09-01T04:08:26.134Z,7.50
2018-09-01T04:10:53.438Z,6.92
2018-09-01T04:13:20.695Z,7.28
2018-09-01T04:15:48.340Z,7.30
2018-09-01T04:18:15.598Z,6.37
2018-09-01T04:20:42.924Z,7.25
2018-09-01T04:23:10.178Z,7.12
2018-09-01T04:25:37.466Z,7.00
2018-09-01T04:28:04.943Z,6.72
2018-09-01T04:30:32.251Z,6.35
2018-09-01T04:32:59.475Z,6.00
2018-09-01T04:35:26.683Z,6.45
2018-09-01T04:37:54.012Z,6.10
2018-09-01T04:40:21.230Z,6.50
2018-09-01T04:42:48.663Z,6.58
2018-09-01T04:45:15.871Z,6.75
2018-09-01T04:47:43.070Z,6.42
2018-09-01T04:50:10.324Z,6.58
2018-09-01T04:52:37.564Z,6.17
2018-09-01T04:55:04.836Z,6.33
2018-09-01T04:57:32.088Z,6.65
2018-09-01T04:59:59.309Z,6.78
2018-09-01T05:02:26.503Z,6.75
2018-09-01T05:04:53.710Z,6.12
2018-09-01T05:07:20.943Z,6.50
2018-09-01T05:09:48.174Z,6.33
2018-09-01T05:12:15.423Z,6.70
2018-09-01T05:14:42.631Z,6.87
2018-09-01T05:17:09.883Z,6.25
2018-09-01T05:19:37.138Z,6.47
2018-09-01T05:22:04.400Z,6.30
2018-09-01T05:24:31.748Z,6.53
2018-09-01T05:26:58.987Z,6.37
2018-09-01T05:29:26.247Z,6.05
2018-09-01T05:31:53.458Z,6.10
2018-09-01T05:34:20.667Z,6.55
2018-09-01T05:36:47.938Z,6.28
2018-09-01T05:39:15.491Z,7.28
2018-09-01T05:41:42.731Z,5.90
2018-09-01T05:44:09.988Z,6.80
2018-09-01T05:46:37.266Z,6.75
2018-09-01T05:49:04.606Z,6.67
2018-09-01T05:51:32.074Z,6.37
2018-09-01T05:53:59.295Z,6.35
2018-09-01T05:56:26.548Z,6.30
2018-09-01T05:58:53.826Z,5.75
2018-09-01T06:01:21.083Z,5.62
2018-09-01T06:03:48.334Z,5.78
2018-09-01T06:06:15.618Z,5.45
2018-09-01T06:08:42.814Z,6.08
2018-09-01T06:11:10.033Z,5.60
2018-09-01T06:13:37.521Z,5.03
2018-09-01T06:16:04.760Z,4.95
2018-09-01T06:18:31.986Z,4.70
2018-09-01T06:20:59.194Z,4.33
2018-09-01T06:23:26.431Z,4.03
2018-09-01T06:25:53.662Z,3.90
2018-09-01T06:28:26.051Z,4.20
2018-09-01T06:30:54.244Z,3.83
2018-09-01T06:33:21.612Z,4.60
2018-09-01T06:35:48.936Z,4.60
2018-09-01T06:38:16.230Z,4.37
2018-09-01T06:40:43.468Z,4.42
2018-09-01T06:43:10.794Z,4.05
2018-09-01T06:45:37.957Z,4.20
2018-09-01T06:48:05.571Z,4.15
2018-09-01T06:50:32.938Z,4.62
2018-09-01T06:53:01.207Z,4.03
2018-09-01T06:55:28.428Z,3.95
2018-09-01T06:57:55.643Z,4.20
2018-09-01T07:00:23.435Z,4.30
2018-09-01T07:02:52.510Z,4.50
2018-09-01T07:05:19.811Z,3.62
2018-09-01T07:07:47.239Z,4.25
2018-09-01T07:10:14.465Z,3.62
2018-09-01T07:12:41.757Z,3.83
2018-09-01T07:15:08.979Z,3.33
2018-09-01T07:17:36.251Z,3.75
2018-09-01T07:20:03.486Z,3.50
2018-09-01T07:22:32.045Z,3.67
2018-09-01T07:24:59.306Z,3.10
2018-09-01T07:27:27.166Z,3.10
2018-09-01T07:29:56.998Z,3.70
2018-09-01T07:32:24.227Z,3.55
2018-09-01T07:34:51.631Z,2.85
2018-09-01T07:37:18.951Z,3.08
2018-09-01T07:39:46.150Z,3.00
2018-09-01T07:42:13.439Z,2.75
2018-09-01T07:44:40.788Z,2.47
2018-09-01T07:47:08.074Z,2.80
2018-09-01T07:49:35.335Z,2.45
2018-09-01T07:52:02.586Z,2.40
2018-09-01T07:54:29.926Z,2.47
2018-09-01T07:56:57.130Z,2.15
2018-09-01T07:59:24.424Z,2.00
2018-09-01T08:01:51.668Z,2.20
2018-09-01T08:04:19.023Z,2.05
2018-09-01T08:06:46.308Z,2.30
2018-09-01T08:09:13.576Z,2.10
2018-09-01T08:11:40.847Z,1.87
2018-09-01T08:14:10.378Z,2.20
2018-09-01T08:16:37.582Z,2.20
2018-09-01T08:19:05.123Z,2.20
2018-09-01T08:21:32.358Z,2.27
2018-09-01T08:23:59.654Z,2.05
2018-09-01T08:26:27.283Z,2.30
2018-09-01T08:28:54.617Z,1.80
2018-09-01T08:31:21.883Z,2.17
2018-09-01T08:33:49.265Z,1.72
2018-09-01T08:36:16.507Z,1.50
2018-09-01T08:38:43.726Z,2.22
2018-09-01T08:41:11.564Z,1.95
2018-09-01T08:43:38.816Z,2.20
2018-09-01T08:46:06.138Z,1.92
2018-09-01T08:48:33.374Z,2.12
2018-09-01T08:51:00.649Z,2.10
2018-09-01T08:53:27.859Z,2.15
2018-09-01T08:55:55.192Z,1.80
2018-09-01T08:58:22.593Z,1.77
2018-09-01T09:00:49.875Z,2.02
2018-09-01T09:03:17.106Z,1.87
2018-09-01T09:05:44.385Z,1.90
2018-09-01T09:08:11.579Z,1.85
2018-09-01T09:10:38.838Z,1.80
2018-09-01T09:13:06.102Z,1.70
2018-09-01T09:15:33.743Z,1.82
2018-09-01T09:18:00.963Z,2.15
2018-09-01T09:20:28.180Z,1.87
2018-09-01T09:22:55.411Z,1.95
2018-09-01T09:25:22.738Z,2.05
2018-09-01T09:27:49.926Z,1.85
2018-09-01T09:30:17.163Z,1.82
2018-09-01T09:32:44.379Z,2.00
2018-09-01T09:35:11.638Z,1.77
2018-09-01T09:37:38.843Z,1.70
2018-09-01T09:40:06.205Z,1.95
2018-09-01T09:42:33.407Z,2.22
2018-09-01T09:45:00.628Z,1.90
2018-09-01T09:47:27.978Z,2.10
2018-09-01T09:49:55.274Z,2.20
2018-09-01T09:52:22.563Z,2.12
2018-09-01T09:54:49.845Z,2.20
2018-09-01T09:57:17.058Z,2.25
2018-09-01T09:59:44.258Z,2.17
2018-09-01T10:02:11.817Z,2.17
2018-09-01T10:04:39.124Z,2.05
2018-09-01T10:07:06.484Z,2.27
2018-09-01T10:09:33.778Z,1.85
2018-09-01T10:12:00.991Z,2.30
2018-09-01T10:14:28.461Z,2.30
2018-09-01T10:16:55.675Z,1.92
2018-09-01T10:19:23.003Z,2.20
2018-09-01T10:21:50.241Z,2.30
2018-09-01T10:24:17.443Z,2.12
2018-09-01T10:26:44.659Z,2.08
2018-09-01T10:29:11.993Z,2.00
2018-09-01T10:31:41.091Z,2.30
2018-09-01T10:34:08.333Z,1.90
2018-09-01T10:36:35.609Z,2.20
2018-09-01T10:39:05.370Z,2.15
2018-09-01T10:41:32.643Z,2.08
2018-09-01T10:43:59.938Z,2.52
2018-09-01T10:46:27.214Z,2.22
2018-09-01T10:48:54.509Z,2.50
2018-09-01T10:51:26.151Z,1.65
2018-09-01T10:53:53.360Z,2.72
2018-09-01T10:56:20.593Z,1.90
2018-09-01T10:58:48.395Z,2.30
2018-09-01T11:01:15.671Z,2.15
2018-09-01T11:03:42.886Z,2.17
2018-09-01T11:06:10.112Z,2.15
2018-09-01T11:08:37.362Z,2.30
2018-09-01T11:11:05.038Z,2.17
2018-09-01T11:13:32.266Z,2.12
2018-09-01T11:15:59.500Z,2.50
2018-09-01T11:18:26.810Z,2.30
2018-09-01T11:20:54.143Z,2.12
2018-09-01T11:23:21.391Z,2.58
2018-09-01T11:25:48.671Z,2.20
2018-09-01T11:28:15.952Z,2.15
2018-09-01T11:30:43.235Z,2.52
2018-09-01T11:33:10.551Z,2.15
2018-09-01T11:35:37.838Z,2.20
2018-09-01T11:38:05.121Z,2.22
2018-09-01T11:40:32.392Z,2.30
2018-09-01T11:42:59.801Z,2.50
2018-09-01T11:45:26.820Z,2.20
2018-09-01T11:47:54.021Z,2.22
2018-09-01T11:50:21.262Z,2.40
2018-09-01T11:52:48.498Z,2.10
2018-09-01T11:55:15.842Z,2.42
2018-09-01T11:57:43.137Z,2.37
2018-09-01T12:00:10.323Z,2.20
2018-09-01T12:02:37.581Z,2.15
2018-09-01T12:05:04.915Z,2.30
2018-09-01T12:07:32.130Z,2.20
2018-09-01T12:09:59.369Z,2.45
2018-09-01T12:12:26.603Z,2.55
2018-09-01T12:14:53.854Z,2.12
2018-09-01T12:17:21.916Z,2.00
2018-09-01T12:19:49.162Z,2.70
2018-09-01T12:22:16.411Z,2.45
2018-09-01T12:24:43.634Z,2.20
2018-09-01T12:27:10.881Z,2.22
2018-09-01T12:29:42.623Z,2.22
2018-09-01T12:32:09.851Z,2.58
2018-09-01T12:34:37.083Z,1.90
2018-09-01T12:37:04.331Z,2.27
2018-09-01T12:39:31.534Z,2.35
2018-09-01T12:41:58.831Z,2.60
2018-09-01T12:44:25.991Z,2.40
2018-09-01T12:46:53.239Z,1.98
2018-09-01T12:49:20.487Z,2.27
2018-09-01T12:51:47.722Z,2.42
2018-09-01T12:54:14.958Z,2.10
2018-09-01T12:56:42.270Z,2.10
2018-09-01T12:59:09.540Z,2.15
2018-09-01T13:01:36.838Z,2.08
2018-09-01T13:04:04.065Z,2.33
2018-09-01T13:06:31.351Z,2.20
2018-09-01T13:08:58.570Z,2.00
2018-09-01T13:11:25.836Z,2.22
2018-09-01T13:13:53.060Z,2.20
2018-09-01T13:16:20.288Z,2.22
2018-09-01T13:18:47.571Z,2.33
2018-09-01T13:21:14.799Z,2.08
2018-09-01T13:23:42.051Z,2.27
2018-09-01T13:26:09.343Z,2.30
2018-09-01T13:28:36.538Z,2.37
2018-09-01T13:31:03.845Z,2.42
2018-09-01T13:33:31.135Z,2.27
2018-09-01T13:35:59.575Z,1.77
2018-09-01T13:38:26.837Z,2.37
2018-09-01T13:40:54.725Z,1.95
2018-09-01T13:43:22.016Z,2.25
2018-09-01T13:45:56.983Z,2.27
2018-09-01T13:48:24.224Z,1.87
2018-09-01T13:50:51.581Z,2.10
2018-09-01T13:53:18.824Z,2.47
2018-09-01T13:55:46.065Z,2.47
2018-09-01T13:58:13.278Z,2.12
2018-09-01T14:00:40.507Z,2.05
2018-09-01T14:03:07.832Z,2.10
2018-09-01T14:05:35.182Z,2.30
2018-09-01T14:08:02.525Z,2.30
2018-09-01T14:10:29.735Z,2.40
2018-09-01T14:12:57.127Z,2.30
2018-09-01T14:15:24.363Z,3.05
2018-09-01T14:17:51.583Z,2.35
2018-09-01T14:20:19.350Z,2.70
2018-09-01T14:22:46.590Z,2.00
2018-09-01T14:25:13.834Z,2.20
2018-09-01T14:27:41.165Z,2.10
2018-09-01T14:30:08.447Z,2.87
2018-09-01T14:32:35.690Z,4.05
2018-09-01T14:35:03.122Z,5.00
2018-09-01T14:37:30.415Z,2.40
2018-09-01T14:39:57.692Z,3.02
2018-09-01T14:42:24.995Z,2.83
2018-09-01T14:44:52.303Z,3.22
2018-09-01T14:47:19.682Z,2.72
2018-09-01T14:49:46.949Z,2.45
2018-09-01T14:52:14.232Z,2.60
2018-09-01T14:54:41.531Z,2.80
2018-09-01T14:57:08.788Z,3.62
2018-09-01T14:59:36.290Z,3.20
2018-09-01T15:02:03.505Z,3.00
2018-09-01T15:04:31.284Z,2.90
2018-09-01T15:06:58.562Z,2.72
2018-09-01T15:09:25.814Z,2.70
2018-09-01T15:11:53.166Z,2.60
2018-09-01T15:14:20.468Z,2.50
2018-09-01T15:16:48.718Z,2.40
2018-09-01T15:19:16.110Z,2.70
2018-09-01T15:21:43.415Z,2.80
2018-09-01T15:24:10.912Z,3.20
2018-09-01T15:26:38.229Z,3.30
2018-09-01T15:29:05.620Z,2.62
2018-09-01T15:31:32.874Z,2.65
2018-09-01T15:34:00.299Z,3.20
2018-09-01T15:36:27.751Z,2.67
2018-09-01T15:38:55.064Z,2.65
2018-09-01T15:41:22.428Z,3.12
2018-09-01T15:43:49.723Z,4.42
2018-09-01T15:46:16.964Z,3.70
2018-09-01T15:48:44.562Z,3.22
2018-09-01T15:51:11.891Z,3.15
2018-09-01T15:53:39.142Z,2.72
2018-09-01T15:56:06.372Z,3.12
2018-09-01T15:58:33.608Z,2.98
2018-09-01T16:01:00.832Z,3.77
2018-09-01T16:03:28.147Z,2.60
2018-09-01T16:05:55.396Z,3.10
2018-09-01T16:08:22.641Z,3.10
2018-09-01T16:10:49.950Z,2.90
2018-09-01T16:13:17.296Z,3.10
2018-09-01T16:15:44.649Z,2.95
2018-09-01T16:18:12.182Z,3.27
2018-09-01T16:20:39.403Z,3.77
2018-09-01T16:23:06.627Z,3.30
2018-09-01T16:25:33.907Z,3.60
2018-09-01T16:28:01.274Z,2.67
2018-09-01T16:30:28.678Z,2.90
2018-09-01T16:32:56.655Z,3.12
2018-09-01T16:35:23.914Z,4.12
2018-09-01T16:37:51.205Z,5.78
2018-09-01T16:40:18.673Z,2.80
2018-09-01T16:42:46.098Z,2.77
2018-09-01T16:45:13.379Z,2.58
2018-09-01T16:47:40.639Z,2.70
2018-09-01T16:50:08.030Z,2.60
2018-09-01T16:52:35.267Z,2.70
2018-09-01T16:55:02.597Z,2.85
2018-09-01T16:57:29.906Z,2.77
2018-09-01T16:59:57.128Z,2.92
2018-09-01T17:02:24.524Z,2.85
2018-09-01T17:04:51.746Z,2.87
2018-09-01T17:07:19.735Z,2.62
2018-09-01T17:09:47.006Z,2.58
2018-09-01T17:12:14.279Z,2.70
2018-09-01T17:14:41.498Z,2.87
2018-09-01T17:17:08.758Z,2.98
2018-09-01T17:19:35.981Z,2.58
2018-09-01T17:22:03.806Z,2.27
2018-09-01T17:24:31.098Z,2.58
2018-09-01T17:26:58.471Z,2.83
2018-09-01T17:29:25.915Z,2.72
2018-09-01T17:31:53.148Z,2.77
2018-09-01T17:34:20.359Z,2.30
2018-09-01T17:36:47.584Z,2.70
2018-09-01T17:39:14.822Z,2.65
2018-09-01T17:41:47.137Z,2.72
2018-09-01T17:44:14.359Z,2.90
2018-09-01T17:46:41.566Z,2.37
2018-09-01T17:49:08.793Z,2.60
2018-09-01T17:51:36.023Z,2.40
2018-09-01T17:54:03.258Z,2.60
2018-09-01T17:56:31.575Z,2.80
2018-09-01T17:59:05.397Z,2.85
2018-09-01T18:01:38.637Z,3.20
2018-09-01T18:04:06.075Z,2.90
2018-09-01T18:06:33.339Z,2.90
2018-09-01T18:09:00.574Z,2.80
2018-09-01T18:11:27.806Z,3.10
2018-09-01T18:13:55.101Z,2.30
2018-09-01T18:16:22.382Z,2.67
2018-09-01T18:18:49.608Z,3.05
2018-09-01T18:21:16.951Z,3.35
2018-09-01T18:23:44.341Z,2.77
2018-09-01T18:26:11.616Z,2.92
2018-09-01T18:28:38.837Z,2.95
2018-09-01T18:31:06.183Z,3.05
2018-09-01T18:33:33.454Z,3.15
2018-09-01T18:36:00.680Z,3.15
2018-09-01T18:38:27.927Z,3.45
2018-09-01T18:40:55.233Z,2.87
2018-09-01T18:43:22.456Z,3.35
2018-09-01T18:45:49.723Z,3.02
2018-09-01T18:48:16.989Z,3.25
2018-09-01T18:50:44.331Z,3.02
2018-09-01T18:53:11.618Z,2.83
2018-09-01T18:55:38.943Z,2.92
2018-09-01T18:58:06.364Z,2.90
2018-09-01T19:00:33.623Z,3.08
2018-09-01T19:03:00.920Z,3.20
2018-09-01T19:05:28.921Z,3.67
2018-09-01T19:07:57.108Z,2.90
2018-09-01T19:10:24.363Z,3.20
2018-09-01T19:12:51.639Z,3.02
2018-09-01T19:15:19.017Z,2.95
2018-09-01T19:17:46.231Z,3.25
2018-09-01T19:20:13.567Z,3.20
2018-09-01T19:22:40.975Z,3.30
2018-09-01T19:25:09.299Z,3.33
2018-09-01T19:27:37.763Z,3.50
2018-09-01T19:30:05.592Z,3.27
2018-09-01T19:32:32.942Z,3.40
2018-09-01T19:35:00.210Z,3.10
2018-09-01T19:37:27.533Z,3.55
2018-09-01T19:39:54.763Z,3.60
2018-09-01T19:42:22.036Z,3.62
2018-09-01T19:44:56.092Z,3.92
2018-09-01T19:47:23.364Z,3.62
2018-09-01T19:49:50.616Z,3.50
2018-09-01T19:52:17.899Z,4.20
2018-09-01T19:54:45.148Z,3.95
2018-09-01T19:57:12.432Z,3.90
2018-09-01T19:59:39.673Z,4.00
2018-09-01T20:02:07.167Z,3.80
2018-09-01T20:04:34.432Z,4.00
2018-09-01T20:07:01.695Z,4.10
2018-09-01T20:09:29.033Z,3.95
2018-09-01T20:11:56.264Z,4.03
2018-09-01T20:14:23.539Z,4.10
2018-09-01T20:16:51.736Z,3.87
2018-09-01T20:19:18.984Z,3.90
2018-09-01T20:21:46.232Z,3.83
2018-09-01T20:24:13.534Z,3.92
2018-09-01T20:26:40.799Z,3.92
2018-09-01T20:29:08.637Z,4.00
2018-09-01T20:31:36.064Z,3.65
2018-09-01T20:34:03.806Z,3.58
2018-09-01T20:36:31.327Z,4.30
2018-09-01T20:38:58.942Z,4.37
2018-09-01T20:41:27.526Z,3.83
2018-09-01T20:43:54.781Z,3.80
2018-09-01T20:46:25.945Z,4.30
2018-09-01T20:48:53.398Z,4.47
2018-09-01T20:51:20.900Z,4.70
2018-09-01T20:53:48.315Z,4.15
2018-09-01T20:56:15.935Z,4.25
2018-09-01T20:58:43.476Z,4.17
2018-09-01T21:01:10.751Z,4.17
2018-09-01T21:03:38.588Z,4.25
2018-09-01T21:06:05.902Z,3.80
2018-09-01T21:08:33.179Z,4.08
2018-09-01T21:11:00.397Z,4.17
2018-09-01T21:13:27.855Z,4.10
2018-09-01T21:15:55.110Z,4.50
2018-09-01T21:18:22.328Z,4.58
2018-09-01T21:20:49.601Z,4.65
2018-09-01T21:23:16.851Z,4.80
2018-09-01T21:25:44.181Z,4.55
2018-09-01T21:28:11.433Z,4.55
2018-09-01T21:30:38.718Z,4.90
2018-09-01T21:33:05.982Z,4.45
2018-09-01T21:35:33.275Z,3.92
2018-09-01T21:38:00.566Z,4.20
2018-09-01T21:40:27.829Z,4.20
2018-09-01T21:42:55.085Z,4.15
2018-09-01T21:45:22.361Z,3.95
2018-09-01T21:47:49.668Z,4.20
2018-09-01T21:50:16.979Z,4.50
2018-09-01T21:52:44.261Z,4.10
2018-09-01T21:55:11.587Z,3.75
2018-09-01T21:57:39.036Z,3.85
2018-09-01T22:00:07.921Z,3.80
2018-09-01T22:02:35.625Z,3.90
2018-09-01T22:05:08.596Z,4.12
2018-09-01T22:07:35.916Z,3.90
2018-09-01T22:10:03.339Z,3.95
2018-09-01T22:12:30.594Z,4.08
2018-09-01T22:14:58.062Z,4.03
2018-09-01T22:17:25.419Z,4.40
2018-09-01T22:19:52.977Z,4.53
2018-09-01T22:22:20.248Z,4.90
2018-09-01T22:24:47.594Z,4.78
2018-09-01T22:27:15.170Z,4.40
2018-09-01T22:29:42.672Z,4.42
2018-09-01T22:32:10.126Z,4.30
2018-09-01T22:34:37.427Z,3.85
2018-09-01T22:37:04.843Z,3.98
2018-09-01T22:39:32.851Z,3.60
2018-09-01T22:42:00.250Z,4.67
2018-09-01T22:44:27.589Z,4.10
2018-09-01T22:46:56.035Z,4.00
2018-09-01T22:49:23.715Z,4.15
2018-09-01T22:51:51.372Z,3.87
2018-09-01T22:54:19.017Z,4.15
2018-09-01T22:56:46.355Z,4.45
2018-09-01T22:59:13.822Z,4.30
2018-09-01T23:01:41.303Z,4.30
2018-09-01T23:04:08.671Z,5.03
2018-09-01T23:06:36.018Z,4.20
2018-09-01T23:09:05.383Z,4.20
2018-09-01T23:11:32.667Z,4.15
2018-09-01T23:13:59.948Z,4.42
2018-09-01T23:16:27.218Z,4.53
2018-09-01T23:18:54.571Z,4.28
2018-09-01T23:21:21.820Z,4.08
2018-09-01T23:23:49.533Z,5.20
2018-09-01T23:26:16.816Z,4.95
2018-09-01T23:28:44.362Z,4.87
2018-09-01T23:31:11.937Z,5.00
2018-09-01T23:33:39.552Z,4.65
2018-09-01T23:36:07.307Z,4.70
2018-09-01T23:38:34.583Z,5.10
2018-09-01T23:41:01.973Z,5.10
2018-09-01T23:43:29.355Z,4.90
2018-09-01T23:45:56.649Z,5.20
2018-09-01T23:48:23.899Z,4.87
2018-09-01T23:50:51.151Z,4.67
2018-09-01T23:53:18.399Z,4.50
2018-09-01T23:55:45.671Z,5.03
2018-09-01T23:58:12.956Z,4.95
